createdAt,value
2019-02-11T00:01:30.735Z,4.17
2019-02-11T00:04:04.728Z,3.90
2019-02-11T00:06:39.779Z,5.47
2019-02-11T00:09:17.669Z,4.97
2019-02-11T00:12:08.058Z,4.20
2019-02-11T00:14:42.337Z,5.13
2019-02-11T00:17:17.997Z,4.27
2019-02-11T00:19:51.639Z,4.20
2019-02-11T00:22:24.348Z,4.17
2019-02-11T00:24:57.362Z,4.67
2019-02-11T00:27:30.700Z,4.23
2019-02-11T00:30:05.291Z,4.57
2019-02-11T00:32:39.706Z,6.53
2019-02-11T00:35:14.450Z,5.70
2019-02-11T00:37:47.627Z,5.33
2019-02-11T00:40:21.544Z,5.37
2019-02-11T00:42:54.202Z,5.57
2019-02-11T00:45:29.031Z,4.80
2019-02-11T00:48:03.613Z,4.70
2019-02-11T00:50:36.828Z,5.90
2019-02-11T00:53:09.736Z,6.50
2019-02-11T00:55:43.714Z,5.30
2019-02-11T00:58:19.639Z,7.27
2019-02-11T01:00:53.229Z,6.93
2019-02-11T01:03:26.477Z,6.13
2019-02-11T01:05:59.938Z,5.33
2019-02-11T01:08:32.769Z,6.67
2019-02-11T01:11:05.625Z,5.73
2019-02-11T01:13:38.252Z,4.13
2019-02-11T01:16:11.022Z,4.20
2019-02-11T01:18:43.945Z,6.00
2019-02-11T01:21:16.561Z,5.03
2019-02-11T01:23:49.156Z,5.57
2019-02-11T01:26:22.341Z,4.22
2019-02-11T01:28:55.124Z,4.57
2019-02-11T01:31:27.712Z,6.75
2019-02-11T01:34:00.930Z,3.97
2019-02-11T01:36:33.467Z,6.53
2019-02-11T01:39:08.525Z,4.70
2019-02-11T01:41:42.101Z,4.87
2019-02-11T01:44:14.913Z,7.57
2019-02-11T01:46:47.409Z,3.90
2019-02-11T01:49:20.644Z,5.87
2019-02-11T01:51:53.764Z,4.37
2019-02-11T01:54:26.435Z,6.57
2019-02-11T01:56:59.801Z,5.70
2019-02-11T01:59:33.327Z,6.57
2019-02-11T02:02:06.045Z,6.00
2019-02-11T02:04:39.189Z,4.30
2019-02-11T02:07:13.312Z,8.85
2019-02-11T02:09:45.985Z,7.67
2019-02-11T02:12:19.978Z,6.03
2019-02-11T02:14:53.339Z,6.23
2019-02-11T02:17:25.989Z,8.52
2019-02-11T02:19:58.893Z,7.77
2019-02-11T02:22:31.558Z,6.70
2019-02-11T02:25:04.779Z,9.80
2019-02-11T02:27:38.886Z,10.80
2019-02-11T02:30:14.127Z,12.63
2019-02-11T02:32:46.753Z,12.93
2019-02-11T02:35:19.695Z,11.70
2019-02-11T02:37:52.937Z,13.57
2019-02-11T02:40:25.698Z,15.27
2019-02-11T02:43:02.353Z,14.93
2019-02-11T02:45:34.986Z,12.20
2019-02-11T02:48:07.972Z,14.00
2019-02-11T02:50:40.718Z,13.23
2019-02-11T02:53:14.382Z,9.67
2019-02-11T02:55:48.485Z,12.50
2019-02-11T02:58:21.952Z,13.97
2019-02-11T03:00:58.817Z,11.20
2019-02-11T03:03:38.605Z,12.70
2019-02-11T03:06:11.334Z,10.57
2019-02-11T03:08:44.360Z,13.57
2019-02-11T03:11:17.120Z,15.73
2019-02-11T03:13:49.708Z,9.67
2019-02-11T03:16:24.880Z,13.70
2019-02-11T03:18:57.474Z,14.33
2019-02-11T03:21:30.097Z,14.43
2019-02-11T03:24:03.126Z,13.53
2019-02-11T03:26:35.792Z,11.20
2019-02-11T03:29:08.428Z,13.33
2019-02-11T03:31:42.593Z,11.00
2019-02-11T03:34:15.205Z,11.13
2019-02-11T03:36:47.775Z,10.43
2019-02-11T03:39:21.326Z,12.13
2019-02-11T03:41:58.350Z,11.10
2019-02-11T03:44:33.156Z,13.27
2019-02-11T03:47:07.724Z,12.20
2019-02-11T03:49:45.333Z,9.40
2019-02-11T03:52:18.830Z,10.80
2019-02-11T03:54:52.447Z,12.90
2019-02-11T03:57:26.083Z,18.40
2019-02-11T03:59:59.867Z,11.53
2019-02-11T04:02:35.873Z,10.73
2019-02-11T04:05:09.878Z,15.37
2019-02-11T04:07:42.797Z,12.23
2019-02-11T04:10:16.272Z,13.53
2019-02-11T04:12:57.646Z,11.13
2019-02-11T04:15:31.388Z,11.90
2019-02-11T04:18:05.297Z,16.47
2019-02-11T04:20:39.634Z,19.90
2019-02-11T04:23:13.971Z,17.23
2019-02-11T04:25:46.984Z,23.10
2019-02-11T04:28:20.401Z,22.40
2019-02-11T04:30:56.781Z,20.80
2019-02-11T04:33:31.986Z,24.13
2019-02-11T04:36:06.338Z,22.53
2019-02-11T04:38:39.023Z,21.60
2019-02-11T04:41:11.906Z,26.43
2019-02-11T04:43:44.651Z,27.37
2019-02-11T04:46:19.134Z,27.43
2019-02-11T04:48:52.065Z,31.00
2019-02-11T04:51:27.628Z,27.13
2019-02-11T04:54:01.098Z,34.37
2019-02-11T04:56:34.993Z,24.53
2019-02-11T04:59:07.669Z,26.70
2019-02-11T05:01:40.919Z,26.67
2019-02-11T05:04:13.919Z,28.40
2019-02-11T05:06:46.456Z,26.93
2019-02-11T05:09:19.059Z,30.90
2019-02-11T05:11:51.975Z,20.60
2019-02-11T05:14:25.057Z,28.07
2019-02-11T05:16:58.113Z,20.30
2019-02-11T05:19:30.810Z,23.90
2019-02-11T05:22:03.353Z,24.20
2019-02-11T05:24:36.162Z,27.40
2019-02-11T05:27:09.629Z,24.83
2019-02-11T05:29:43.540Z,22.90
2019-02-11T05:32:17.512Z,24.33
2019-02-11T05:34:50.177Z,22.87
2019-02-11T05:37:23.097Z,24.70
2019-02-11T05:39:55.799Z,24.97
2019-02-11T05:42:28.545Z,22.97
2019-02-11T05:45:03.883Z,18.85
2019-02-11T05:47:36.767Z,18.83
2019-02-11T05:50:10.519Z,23.57
2019-02-11T05:52:44.425Z,20.53
2019-02-11T05:55:17.075Z,21.77
2019-02-11T05:57:49.709Z,21.70
2019-02-11T06:00:23.458Z,26.20
2019-02-11T06:02:57.075Z,18.87
2019-02-11T06:05:31.225Z,26.70
2019-02-11T06:08:04.113Z,21.33
2019-02-11T06:10:36.895Z,25.05
2019-02-11T06:13:10.110Z,25.53
2019-02-11T06:15:42.982Z,17.63
2019-02-11T06:18:15.866Z,18.97
2019-02-11T06:20:49.426Z,23.83
2019-02-11T06:23:22.674Z,22.83
2019-02-11T06:25:57.215Z,23.97
2019-02-11T06:28:29.824Z,15.63
2019-02-11T06:31:02.453Z,22.93
2019-02-11T06:33:35.234Z,20.87
2019-02-11T06:36:12.399Z,23.87
2019-02-11T06:38:46.912Z,18.97
2019-02-11T06:41:21.129Z,25.92
2019-02-11T06:43:54.268Z,24.50
2019-02-11T06:46:26.934Z,22.27
2019-02-11T06:48:59.481Z,19.07
2019-02-11T06:51:43.227Z,20.00
2019-02-11T06:54:16.068Z,22.57
2019-02-11T06:56:50.062Z,23.77
2019-02-11T06:59:25.693Z,21.17
2019-02-11T07:02:01.040Z,18.07
2019-02-11T07:04:34.591Z,19.20
2019-02-11T07:07:07.566Z,19.17
2019-02-11T07:09:41.442Z,24.97
2019-02-11T07:12:14.659Z,22.73
2019-02-11T07:14:47.986Z,16.93
2019-02-11T07:17:20.759Z,20.93
2019-02-11T07:19:53.736Z,22.60
2019-02-11T07:22:26.374Z,20.60
2019-02-11T07:24:59.766Z,22.07
2019-02-11T07:27:34.929Z,22.20
2019-02-11T07:30:13.534Z,16.27
2019-02-11T07:32:47.314Z,19.00
2019-02-11T07:35:22.059Z,20.27
2019-02-11T07:37:54.938Z,19.77
2019-02-11T07:40:29.318Z,15.60
2019-02-11T07:43:15.043Z,17.53
2019-02-11T07:45:52.509Z,22.90
2019-02-11T07:48:29.578Z,21.87
2019-02-11T07:51:09.372Z,19.67
2019-02-11T07:53:42.956Z,19.37
2019-02-11T07:56:15.756Z,17.80
2019-02-11T07:58:51.102Z,19.93
2019-02-11T08:01:23.726Z,25.97
2019-02-11T08:03:58.392Z,19.87
2019-02-11T08:06:31.407Z,23.47
2019-02-11T08:09:08.724Z,15.80
2019-02-11T08:11:41.665Z,24.00
2019-02-11T08:14:17.108Z,24.07
2019-02-11T08:16:51.117Z,22.95
2019-02-11T08:19:24.251Z,23.70
2019-02-11T08:22:01.293Z,22.13
2019-02-11T08:24:34.404Z,19.63
2019-02-11T08:27:08.979Z,21.13
2019-02-11T08:29:42.772Z,19.73
2019-02-11T08:32:17.718Z,25.57
2019-02-11T08:34:52.527Z,23.33
2019-02-11T08:37:25.474Z,20.10
2019-02-11T08:39:59.270Z,25.63
2019-02-11T08:42:32.921Z,23.63
2019-02-11T08:45:09.607Z,19.00
2019-02-11T08:47:43.408Z,24.17
2019-02-11T08:50:20.138Z,19.08
2019-02-11T08:52:55.770Z,19.77
2019-02-11T08:55:28.451Z,20.43
2019-02-11T08:58:02.240Z,25.87
2019-02-11T09:00:42.865Z,18.70
2019-02-11T09:03:18.426Z,25.47
2019-02-11T09:05:53.260Z,24.37
2019-02-11T09:08:26.405Z,18.10
2019-02-11T09:11:02.857Z,21.77
2019-02-11T09:13:36.999Z,21.25
2019-02-11T09:16:11.078Z,23.50
2019-02-11T09:18:47.059Z,21.60
2019-02-11T09:21:23.929Z,25.63
2019-02-11T09:23:57.466Z,20.23
2019-02-11T09:26:31.507Z,15.70
2019-02-11T09:29:04.191Z,16.17
2019-02-11T09:31:37.489Z,17.37
2019-02-11T09:34:12.356Z,25.47
2019-02-11T09:36:45.356Z,19.23
2019-02-11T09:39:18.088Z,26.17
2019-02-11T09:41:52.178Z,16.50
2019-02-11T09:44:29.695Z,19.83
2019-02-11T09:47:15.794Z,17.55
2019-02-11T09:50:22.177Z,21.73
2019-02-11T09:52:57.988Z,23.97
2019-02-11T09:55:35.217Z,18.03
2019-02-11T09:58:10.932Z,18.30
2019-02-11T10:00:46.936Z,20.12
2019-02-11T10:03:20.900Z,17.70
2019-02-11T10:05:56.313Z,18.47
2019-02-11T10:08:31.065Z,21.67
2019-02-11T10:11:03.639Z,13.30
2019-02-11T10:13:38.028Z,17.60
2019-02-11T10:16:14.919Z,18.13
2019-02-11T10:18:48.556Z,17.33
2019-02-11T10:21:22.858Z,14.73
2019-02-11T10:24:08.793Z,17.63
2019-02-11T10:26:47.159Z,15.97
2019-02-11T10:29:33.332Z,14.80
2019-02-11T10:32:20.603Z,14.27
2019-02-11T10:34:55.496Z,16.37
2019-02-11T10:37:36.885Z,18.93
2019-02-11T10:40:12.004Z,14.50
2019-02-11T10:42:44.560Z,18.10
2019-02-11T10:45:17.416Z,15.63
2019-02-11T10:47:54.635Z,14.60
2019-02-11T10:50:28.791Z,16.23
2019-02-11T10:53:02.995Z,13.68
2019-02-11T10:55:42.281Z,14.10
2019-02-11T10:58:16.587Z,13.00
2019-02-11T11:00:52.922Z,15.40
2019-02-11T11:03:25.528Z,14.57
2019-02-11T11:06:01.207Z,15.63
2019-02-11T11:08:35.765Z,13.27
2019-02-11T11:11:10.308Z,15.83
2019-02-11T11:13:43.120Z,12.07
2019-02-11T11:16:18.712Z,13.77
2019-02-11T11:18:51.684Z,12.23
2019-02-11T11:21:26.017Z,15.23
2019-02-11T11:24:00.180Z,16.23
2019-02-11T11:26:49.848Z,21.10
2019-02-11T11:29:38.036Z,20.77
2019-02-11T11:32:12.244Z,15.33
2019-02-11T11:34:48.636Z,13.53
2019-02-11T11:37:23.478Z,15.33
2019-02-11T11:39:56.277Z,16.70
2019-02-11T11:42:29.107Z,16.93
2019-02-11T11:45:04.902Z,17.93
2019-02-11T11:47:37.684Z,15.83
2019-02-11T11:50:11.764Z,14.27
2019-02-11T11:52:45.505Z,12.53
2019-02-11T11:55:20.042Z,15.03
2019-02-11T11:57:53.753Z,11.40
2019-02-11T12:00:31.423Z,12.83
2019-02-11T12:03:05.700Z,15.20
2019-02-11T12:05:43.705Z,11.50
2019-02-11T12:08:17.355Z,11.53
2019-02-11T12:10:50.108Z,12.07
2019-02-11T12:13:25.474Z,13.53
2019-02-11T12:15:59.464Z,13.60
2019-02-11T12:18:37.292Z,17.17
2019-02-11T12:21:09.907Z,15.20
2019-02-11T12:23:44.082Z,11.40
2019-02-11T12:26:21.303Z,9.93
2019-02-11T12:28:56.068Z,11.85
2019-02-11T12:31:29.307Z,11.00
2019-02-11T12:34:08.705Z,12.05
2019-02-11T12:36:45.554Z,15.17
2019-02-11T12:39:18.461Z,12.00
2019-02-11T12:41:51.545Z,6.57
2019-02-11T12:44:26.388Z,9.57
2019-02-11T12:47:13.388Z,10.90
2019-02-11T12:49:48.415Z,8.67
2019-02-11T12:52:22.062Z,6.60
2019-02-11T12:54:55.371Z,11.87
2019-02-11T12:57:28.400Z,9.23
2019-02-11T13:00:01.130Z,14.17
2019-02-11T13:02:37.827Z,12.73
2019-02-11T13:05:15.370Z,11.70
2019-02-11T13:07:48.245Z,9.37
2019-02-11T13:10:21.073Z,11.83
2019-02-11T13:12:53.815Z,9.17
2019-02-11T13:15:56.586Z,16.07
2019-02-11T13:18:32.918Z,13.23
2019-02-11T13:21:06.514Z,14.50
2019-02-11T13:23:40.335Z,8.93
2019-02-11T13:26:14.826Z,9.60
2019-02-11T13:28:50.441Z,7.37
2019-02-11T13:31:25.718Z,5.07
2019-02-11T13:34:00.403Z,4.30
2019-02-11T13:36:34.612Z,5.63
2019-02-11T13:39:07.719Z,12.73
2019-02-11T13:41:40.543Z,9.37
2019-02-11T13:44:16.612Z,13.63
2019-02-11T13:46:51.065Z,8.57
2019-02-11T13:49:23.926Z,9.13
2019-02-11T13:51:57.557Z,8.10
2019-02-11T13:54:30.295Z,11.93
2019-02-11T13:57:05.148Z,6.90
2019-02-11T13:59:40.944Z,7.90
2019-02-11T14:02:15.645Z,9.03
2019-02-11T14:04:48.739Z,8.57
2019-02-11T14:07:24.437Z,9.70
2019-02-11T14:10:01.483Z,8.70
2019-02-11T14:12:36.485Z,8.10
2019-02-11T14:15:13.374Z,8.33
2019-02-11T14:17:47.562Z,9.23
2019-02-11T14:20:25.118Z,8.63
2019-02-11T14:22:58.484Z,12.03
2019-02-11T14:25:43.890Z,6.90
2019-02-11T14:28:25.600Z,10.57
2019-02-11T14:31:00.239Z,9.20
2019-02-11T14:33:35.181Z,7.07
2019-02-11T14:36:19.781Z,8.47
2019-02-11T14:38:54.056Z,6.93
2019-02-11T14:41:28.701Z,9.77
2019-02-11T14:44:03.022Z,7.10
2019-02-11T14:46:37.864Z,11.97
2019-02-11T14:49:10.621Z,10.37
2019-02-11T14:51:44.043Z,7.57
2019-02-11T14:54:18.611Z,7.27
2019-02-11T14:56:53.258Z,7.70
2019-02-11T14:59:30.324Z,11.43
2019-02-11T15:02:04.047Z,9.67
2019-02-11T15:04:47.462Z,13.07
2019-02-11T15:07:23.735Z,11.37
2019-02-11T15:10:00.311Z,13.83
2019-02-11T15:12:34.278Z,14.70
2019-02-11T15:15:09.967Z,11.57
2019-02-11T15:17:46.314Z,11.80
2019-02-11T15:20:21.016Z,11.43
2019-02-11T15:22:55.719Z,11.87
2019-02-11T15:25:28.358Z,12.50
2019-02-11T15:28:02.681Z,16.43
2019-02-11T15:30:39.603Z,11.33
2019-02-11T15:33:14.813Z,12.17
2019-02-11T15:35:53.793Z,12.43
2019-02-11T15:38:33.844Z,11.00
2019-02-11T15:41:17.129Z,14.53
2019-02-11T15:43:50.175Z,10.43
2019-02-11T15:46:24.768Z,14.13
2019-02-11T15:49:01.766Z,16.43
2019-02-11T15:51:35.268Z,11.20
2019-02-11T15:54:09.680Z,15.50
2019-02-11T15:56:44.566Z,11.50
2019-02-11T15:59:17.300Z,11.50
2019-02-11T16:01:50.461Z,14.23
2019-02-11T16:04:26.038Z,10.10
2019-02-11T16:07:00.358Z,12.37
2019-02-11T16:09:33.832Z,12.87
2019-02-11T16:12:10.672Z,16.13
2019-02-11T16:14:54.400Z,15.20
2019-02-11T16:17:28.002Z,14.57
2019-02-11T16:20:11.963Z,10.60
2019-02-11T16:22:49.363Z,18.93
2019-02-11T16:25:22.736Z,13.07
2019-02-11T16:27:59.920Z,19.17
2019-02-11T16:30:33.821Z,12.35
2019-02-11T16:33:10.153Z,13.80
2019-02-11T16:35:44.090Z,8.13
2019-02-11T16:38:18.736Z,8.20
2019-02-11T16:40:52.620Z,11.27
2019-02-11T16:43:25.499Z,8.73
2019-02-11T16:45:59.805Z,12.17
2019-02-11T16:48:34.574Z,12.20
2019-02-11T16:51:09.831Z,10.25
2019-02-11T16:53:45.935Z,12.43
2019-02-11T16:56:20.758Z,9.67
2019-02-11T16:58:54.069Z,11.17
2019-02-11T17:01:26.769Z,18.70
2019-02-11T17:04:00.374Z,9.77
2019-02-11T17:06:34.631Z,8.93
2019-02-11T17:09:10.423Z,11.53
2019-02-11T17:11:46.415Z,8.57
2019-02-11T17:14:21.190Z,14.07
2019-02-11T17:16:54.723Z,10.00
2019-02-11T17:19:27.430Z,18.73
2019-02-11T17:22:01.595Z,9.20
2019-02-11T17:24:35.444Z,11.37
2019-02-11T17:27:09.176Z,10.07
2019-02-11T17:29:43.069Z,9.98
2019-02-11T17:32:16.690Z,8.93
2019-02-11T17:34:55.956Z,13.23
2019-02-11T17:37:30.495Z,13.40
2019-02-11T17:40:05.859Z,18.13
2019-02-11T17:42:40.064Z,14.13
2019-02-11T17:45:19.869Z,12.33
2019-02-11T17:47:57.028Z,11.30
2019-02-11T17:50:33.665Z,16.17
2019-02-11T17:53:10.685Z,10.15
2019-02-11T17:55:46.916Z,13.77
2019-02-11T17:58:22.177Z,9.67
2019-02-11T18:00:59.545Z,14.33
2019-02-11T18:03:33.304Z,13.90
2019-02-11T18:06:07.698Z,12.17
2019-02-11T18:08:42.995Z,8.38
2019-02-11T18:11:15.940Z,11.23
2019-02-11T18:13:50.894Z,9.07
2019-02-11T18:16:27.033Z,9.47
2019-02-11T18:19:02.889Z,11.88
2019-02-11T18:21:36.669Z,8.43
2019-02-11T18:24:12.465Z,12.20
2019-02-11T18:26:53.645Z,10.20
2019-02-11T18:29:27.135Z,11.37
2019-02-11T18:32:01.937Z,10.20
2019-02-11T18:34:35.978Z,10.87
2019-02-11T18:37:09.698Z,10.07
2019-02-11T18:39:44.441Z,14.67
2019-02-11T18:42:18.577Z,12.33
2019-02-11T18:44:53.998Z,20.23
2019-02-11T18:47:26.895Z,11.43
2019-02-11T18:50:04.628Z,16.40
2019-02-11T18:52:45.290Z,16.30
2019-02-11T18:55:21.524Z,22.05
2019-02-11T18:57:55.856Z,18.23
2019-02-11T19:00:37.124Z,20.63
2019-02-11T19:03:13.207Z,21.47
2019-02-11T19:05:47.736Z,15.50
2019-02-11T19:08:26.731Z,15.13
2019-02-11T19:11:03.105Z,14.50
2019-02-11T19:13:37.049Z,15.40
2019-02-11T19:16:10.780Z,14.70
2019-02-11T19:18:46.560Z,14.83
2019-02-11T19:21:20.666Z,15.50
2019-02-11T19:23:54.611Z,15.00
2019-02-11T19:26:29.373Z,14.50
2019-02-11T19:29:03.247Z,15.73
2019-02-11T19:31:39.452Z,14.40
2019-02-11T19:34:16.848Z,13.70
2019-02-11T19:36:52.588Z,17.20
2019-02-11T19:39:29.762Z,16.52
2019-02-11T19:42:02.728Z,15.07
2019-02-11T19:44:40.954Z,18.80
2019-02-11T19:47:13.677Z,20.43
2019-02-11T19:49:51.756Z,29.23
2019-02-11T19:52:27.578Z,20.97
2019-02-11T19:55:02.296Z,19.27
2019-02-11T19:57:36.556Z,21.23
2019-02-11T20:00:19.058Z,29.83
2019-02-11T20:02:53.269Z,21.60
2019-02-11T20:05:27.833Z,21.60
2019-02-11T20:08:17.078Z,20.12
2019-02-11T20:10:50.680Z,25.70
2019-02-11T20:13:30.153Z,24.73
2019-02-11T20:16:04.851Z,29.23
2019-02-11T20:18:41.429Z,17.87
2019-02-11T20:21:18.548Z,21.47
2019-02-11T20:23:52.217Z,18.60
2019-02-11T20:26:30.994Z,29.50
2019-02-11T20:29:06.133Z,29.30
2019-02-11T20:31:39.237Z,25.65
2019-02-11T20:34:13.567Z,29.50
2019-02-11T20:36:47.542Z,23.43
2019-02-11T20:39:24.484Z,22.67
2019-02-11T20:41:59.522Z,27.17
2019-02-11T20:44:32.194Z,25.40
2019-02-11T20:47:06.233Z,19.93
2019-02-11T20:49:39.030Z,21.37
2019-02-11T20:52:14.043Z,17.40
2019-02-11T20:54:49.052Z,17.10
2019-02-11T20:57:26.276Z,21.87
2019-02-11T20:59:59.013Z,18.30
2019-02-11T21:02:32.729Z,20.57
2019-02-11T21:05:10.090Z,19.43
2019-02-11T21:07:50.455Z,17.47
2019-02-11T21:10:25.127Z,25.10
2019-02-11T21:12:58.437Z,20.10
2019-02-11T21:15:31.628Z,19.07
2019-02-11T21:18:06.924Z,19.60
2019-02-11T21:20:42.384Z,23.50
2019-02-11T21:23:16.187Z,17.83
2019-02-11T21:25:49.861Z,17.93
2019-02-11T21:28:23.398Z,21.92
2019-02-11T21:30:59.878Z,25.87
2019-02-11T21:33:34.790Z,25.27
2019-02-11T21:36:09.494Z,24.10
2019-02-11T21:38:44.595Z,24.17
2019-02-11T21:41:24.207Z,23.23
2019-02-11T21:43:58.849Z,15.40
2019-02-11T21:46:32.188Z,24.93
2019-02-11T21:49:06.160Z,22.43
2019-02-11T21:51:42.397Z,16.40
2019-02-11T21:54:16.093Z,22.47
2019-02-11T21:56:52.133Z,18.50
2019-02-11T21:59:24.893Z,16.90
2019-02-11T22:02:00.480Z,21.50
2019-02-11T22:04:35.051Z,18.10
2019-02-11T22:07:08.626Z,16.47
2019-02-11T22:09:42.707Z,21.00
2019-02-11T22:12:16.050Z,23.57
2019-02-11T22:14:48.847Z,24.10
2019-02-11T22:17:24.823Z,29.83
2019-02-11T22:20:05.633Z,20.23
2019-02-11T22:22:41.811Z,30.53
2019-02-11T22:25:17.207Z,18.63
2019-02-11T22:27:51.045Z,24.40
2019-02-11T22:30:23.949Z,29.17
2019-02-11T22:32:57.797Z,28.77
2019-02-11T22:35:30.450Z,26.90
2019-02-11T22:38:05.857Z,20.57
2019-02-11T22:40:39.615Z,29.07
2019-02-11T22:43:13.979Z,29.43
2019-02-11T22:45:56.755Z,19.57
2019-02-11T22:48:31.342Z,20.73
2019-02-11T22:51:05.100Z,25.33
2019-02-11T22:53:39.516Z,27.37
2019-02-11T22:56:17.204Z,20.57
2019-02-11T22:58:51.418Z,20.87
2019-02-11T23:01:26.997Z,18.50
2019-02-11T23:04:00.152Z,25.67
2019-02-11T23:06:34.339Z,16.63
2019-02-11T23:09:11.126Z,19.60
2019-02-11T23:11:43.909Z,19.75
2019-02-11T23:14:16.340Z,19.55
2019-02-11T23:16:49.380Z,24.40
2019-02-11T23:19:21.753Z,21.23
2019-02-11T23:21:58.369Z,19.57
2019-02-11T23:24:32.750Z,21.93
2019-02-11T23:27:05.383Z,20.17
2019-02-11T23:29:39.766Z,19.87
2019-02-11T23:32:13.223Z,19.17
2019-02-11T23:34:47.297Z,22.60
2019-02-11T23:37:19.968Z,28.83
2019-02-11T23:39:52.995Z,22.40
2019-02-11T23:42:26.320Z,19.73
2019-02-11T23:44:58.980Z,19.93
2019-02-11T23:47:32.200Z,22.85
2019-02-11T23:50:07.397Z,29.63
2019-02-11T23:52:39.941Z,27.63
2019-02-11T23:55:19.093Z,22.23
2019-02-11T23:57:53.051Z,23.43
